sensor_id;sensor_type;location;lat;lon;timestamp;pressure;altitude;pressure_sealevel;temperature;humidity
55263;BME280;41125;48.752;9.168;2023-01-28T00:00:16;97413.97;;;-1.33;86.00
55263;BME280;41125;48.752;9.168;2023-01-28T00:00:47;97417.66;;;-1.35;86.26
55263;BME280;41125;48.752;9.168;2023-01-28T00:01:19;97408.66;;;-1.33;86.00
55263;BME280;41125;48.752;9.168;2023-01-28T00:01:50;97419.28;;;-1.33;86.25
55263;BME280;41125;48.752;9.168;2023-01-28T00:02:21;97415.00;;;-1.35;86.48
55263;BME280;41125;48.752;9.168;2023-01-28T00:02:53;97417.66;;;-1.35;86.75
55263;BME280;41125;48.752;9.168;2023-01-28T00:03:24;97416.63;;;-1.33;86.80
55263;BME280;41125;48.752;9.168;2023-01-28T00:03:55;97420.94;;;-1.32;86.85
55263;BME280;41125;48.752;9.168;2023-01-28T00:04:33;97417.25;;;-1.31;86.99
55263;BME280;41125;48.752;9.168;2023-01-28T00:05:09;97418.88;;;-1.30;87.02
55263;BME280;41125;48.752;9.168;2023-01-28T00:05:40;97414.59;;;-1.31;86.90
55263;BME280;41125;48.752;9.168;2023-01-28T00:06:13;97410.28;;;-1.32;86.35
55263;BME280;41125;48.752;9.168;2023-01-28T00:06:45;97413.34;;;-1.36;85.86
55263;BME280;41125;48.752;9.168;2023-01-28T00:07:16;97421.75;;;-1.39;86.29
55263;BME280;41125;48.752;9.168;2023-01-28T00:07:49;97405.78;;;-1.39;86.34
55263;BME280;41125;48.752;9.168;2023-01-28T00:08:21;97407.41;;;-1.38;86.56
55263;BME280;41125;48.752;9.168;2023-01-28T00:08:53;97416.00;;;-1.36;86.47
55263;BME280;41125;48.752;9.168;2023-01-28T00:09:26;97418.06;;;-1.38;86.47
55263;BME280;41125;48.752;9.168;2023-01-28T00:09:57;97419.91;;;-1.38;86.64
55263;BME280;41125;48.752;9.168;2023-01-28T00:10:29;97412.72;;;-1.38;87.00
55263;BME280;41125;48.752;9.168;2023-01-28T00:11:02;97413.56;;;-1.37;86.78
55263;BME280;41125;48.752;9.168;2023-01-28T00:11:33;97416.00;;;-1.36;86.86
55263;BME280;41125;48.752;9.168;2023-01-28T00:12:05;97417.66;;;-1.35;87.13
55263;BME280;41125;48.752;9.168;2023-01-28T00:12:37;97416.63;;;-1.33;87.22
55263;BME280;41125;48.752;9.168;2023-01-28T00:13:10;97412.94;;;-1.32;87.12
55263;BME280;41125;48.752;9.168;2023-01-28T00:13:44;97415.59;;;-1.32;87.19
55263;BME280;41125;48.752;9.168;2023-01-28T00:14:15;97410.28;;;-1.32;87.16
55263;BME280;41125;48.752;9.168;2023-01-28T00:14:47;97410.28;;;-1.32;86.69
55263;BME280;41125;48.752;9.168;2023-01-28T00:15:18;97405.97;;;-1.33;86.85
55263;BME280;41125;48.752;9.168;2023-01-28T00:15:57;97399.63;;;-1.32;86.95
55263;BME280;41125;48.752;9.168;2023-01-28T00:16:29;97411.91;;;-1.31;87.17
55263;BME280;41125;48.752;9.168;2023-01-28T00:17:03;97410.06;;;-1.31;86.85
55263;BME280;41125;48.752;9.168;2023-01-28T00:17:35;97409.25;;;-1.31;87.19
55263;BME280;41125;48.752;9.168;2023-01-28T00:18:09;97407.63;;;-1.32;86.56
55263;BME280;41125;48.752;9.168;2023-01-28T00:18:40;97412.31;;;-1.35;86.77
55263;BME280;41125;48.752;9.168;2023-01-28T00:19:12;97412.31;;;-1.35;86.74
55263;BME280;41125;48.752;9.168;2023-01-28T00:19:43;97412.72;;;-1.38;86.27
55263;BME280;41125;48.752;9.168;2023-01-28T00:20:15;97411.09;;;-1.39;86.45
55263;BME280;41125;48.752;9.168;2023-01-28T00:21:08;97406.38;;;-1.37;86.70
55263;BME280;41125;48.752;9.168;2023-01-28T00:21:40;97407.00;;;-1.35;86.65
55263;BME280;41125;48.752;9.168;2023-01-28T00:22:11;97407.81;;;-1.34;86.75
55263;BME280;41125;48.752;9.168;2023-01-28T00:22:48;97408.66;;;-1.33;86.40
55263;BME280;41125;48.752;9.168;2023-01-28T00:23:20;97410.28;;;-1.32;86.24
55263;BME280;41125;48.752;9.168;2023-01-28T00:23:54;97405.16;;;-1.27;85.91
55263;BME280;41125;48.752;9.168;2023-01-28T00:24:26;97405.78;;;-1.25;85.63
55263;BME280;41125;48.752;9.168;2023-01-28T00:24:58;97417.66;;;-1.21;85.43
55263;BME280;41125;48.752;9.168;2023-01-28T00:25:29;97409.47;;;-1.20;85.55
55263;BME280;41125;48.752;9.168;2023-01-28T00:26:06;97413.16;;;-1.14;85.51
55263;BME280;41125;48.752;9.168;2023-01-28T00:26:38;97411.53;;;-1.15;85.33
55263;BME280;41125;48.752;9.168;2023-01-28T00:27:09;97415.22;;;-1.16;84.94
55263;BME280;41125;48.752;9.168;2023-01-28T00:27:40;97412.53;;;-1.16;85.35
55263;BME280;41125;48.752;9.168;2023-01-28T00:28:12;97414.59;;;-1.18;84.99
55263;BME280;41125;48.752;9.168;2023-01-28T00:28:43;97412.94;;;-1.19;85.26
55263;BME280;41125;48.752;9.168;2023-01-28T00:29:15;97413.97;;;-1.20;85.19
55263;BME280;41125;48.752;9.168;2023-01-28T00:29:46;97415.63;;;-1.19;85.49
55263;BME280;41125;48.752;9.168;2023-01-28T00:30:19;97416.63;;;-1.20;85.09
55263;BME280;41125;48.752;9.168;2023-01-28T00:30:52;97415.00;;;-1.21;85.19
55263;BME280;41125;48.752;9.168;2023-01-28T00:31:25;97413.38;;;-1.22;85.60
55263;BME280;41125;48.752;9.168;2023-01-28T00:31:57;97409.06;;;-1.23;85.68
55263;BME280;41125;48.752;9.168;2023-01-28T00:32:28;97410.09;;;-1.24;85.60
55263;BME280;41125;48.752;9.168;2023-01-28T00:33:00;97421.75;;;-1.25;86.05
55263;BME280;41125;48.752;9.168;2023-01-28T00:33:32;97409.47;;;-1.26;85.91
55263;BME280;41125;48.752;9.168;2023-01-28T00:34:03;97410.28;;;-1.26;86.04
55263;BME280;41125;48.752;9.168;2023-01-28T00:34:34;97409.47;;;-1.26;86.07
55263;BME280;41125;48.752;9.168;2023-01-28T00:35:06;97409.47;;;-1.26;86.44
55263;BME280;41125;48.752;9.168;2023-01-28T00:35:38;97404.97;;;-1.26;86.24
55263;BME280;41125;48.752;9.168;2023-01-28T00:36:10;97411.09;;;-1.25;86.51
55263;BME280;41125;48.752;9.168;2023-01-28T00:36:41;97404.97;;;-1.26;86.27
55263;BME280;41125;48.752;9.168;2023-01-28T00:37:17;97409.47;;;-1.26;86.45
55263;BME280;41125;48.752;9.168;2023-01-28T00:37:48;97406.81;;;-1.26;86.27
55263;BME280;41125;48.752;9.168;2023-01-28T00:38:19;97403.31;;;-1.27;86.48
55263;BME280;41125;48.752;9.168;2023-01-28T00:39:00;97414.19;;;-1.28;86.33
55263;BME280;41125;48.752;9.168;2023-01-28T00:39:31;97403.53;;;-1.28;86.66
55263;BME280;41125;48.752;9.168;2023-01-28T00:40:03;97400.88;;;-1.28;86.53
55263;BME280;41125;48.752;9.168;2023-01-28T00:40:34;97398.22;;;-1.28;86.82
55263;BME280;41125;48.752;9.168;2023-01-28T00:41:16;97396.38;;;-1.28;86.57
55263;BME280;41125;48.752;9.168;2023-01-28T00:41:48;97395.13;;;-1.25;87.02
55263;BME280;41125;48.752;9.168;2023-01-28T00:42:19;97398.41;;;-1.23;86.49
55263;BME280;41125;48.752;9.168;2023-01-28T00:42:50;97396.78;;;-1.24;86.70
55263;BME280;41125;48.752;9.168;2023-01-28T00:43:22;97396.78;;;-1.24;86.30
55263;BME280;41125;48.752;9.168;2023-01-28T00:43:53;97400.66;;;-1.27;86.39
55263;BME280;41125;48.752;9.168;2023-01-28T00:44:24;97399.84;;;-1.27;86.53
55263;BME280;41125;48.752;9.168;2023-01-28T00:44:56;97398.22;;;-1.28;87.07
55263;BME280;41125;48.752;9.168;2023-01-28T00:45:27;97399.44;;;-1.31;87.05
55263;BME280;41125;48.752;9.168;2023-01-28T00:45:58;97399.44;;;-1.31;87.11
55263;BME280;41125;48.752;9.168;2023-01-28T00:46:31;97394.31;;;-1.32;87.03
55263;BME280;41125;48.752;9.168;2023-01-28T00:47:02;97400.25;;;-1.30;87.25
55263;BME280;41125;48.752;9.168;2023-01-28T00:47:33;97398.22;;;-1.28;87.45
55263;BME280;41125;48.752;9.168;2023-01-28T00:48:05;97391.66;;;-1.26;87.29
55263;BME280;41125;48.752;9.168;2023-01-28T00:48:38;97391.44;;;-1.24;86.75
55263;BME280;41125;48.752;9.168;2023-01-28T00:49:10;97397.78;;;-1.25;86.81
55263;BME280;41125;48.752;9.168;2023-01-28T00:49:41;97395.94;;;-1.25;86.43
55263;BME280;41125;48.752;9.168;2023-01-28T00:50:13;97402.09;;;-1.24;86.45
55263;BME280;41125;48.752;9.168;2023-01-28T00:50:45;97395.13;;;-1.25;86.50
55263;BME280;41125;48.752;9.168;2023-01-28T00:51:17;97395.13;;;-1.25;86.10
55263;BME280;41125;48.752;9.168;2023-01-28T00:51:50;97398.62;;;-1.25;86.35
55263;BME280;41125;48.752;9.168;2023-01-28T00:52:21;97400.47;;;-1.25;86.23
55263;BME280;41125;48.752;9.168;2023-01-28T00:52:53;97397.19;;;-1.27;85.93
55263;BME280;41125;48.752;9.168;2023-01-28T00:53:24;97393.09;;;-1.30;86.20
55263;BME280;41125;48.752;9.168;2023-01-28T00:53:55;97400.66;;;-1.33;86.37
55263;BME280;41125;48.752;9.168;2023-01-28T00:54:27;97396.34;;;-1.35;86.97
55263;BME280;41125;48.752;9.168;2023-01-28T00:54:58;97399.22;;;-1.36;86.86
55263;BME280;41125;48.752;9.168;2023-01-28T00:55:30;97400.03;;;-1.36;87.27
55263;BME280;41125;48.752;9.168;2023-01-28T00:56:01;97401.69;;;-1.35;87.18
55263;BME280;41125;48.752;9.168;2023-01-28T00:56:33;97398.19;;;-1.35;87.72
55263;BME280;41125;48.752;9.168;2023-01-28T00:57:06;97407.00;;;-1.35;87.78
55263;BME280;41125;48.752;9.168;2023-01-28T00:57:38;97400.03;;;-1.36;87.69
55263;BME280;41125;48.752;9.168;2023-01-28T00:58:09;97401.06;;;-1.37;87.72
55263;BME280;41125;48.752;9.168;2023-01-28T00:58:41;97394.72;;;-1.36;87.83
55263;BME280;41125;48.752;9.168;2023-01-28T00:59:13;97410.69;;;-1.36;88.11
55263;BME280;41125;48.752;9.168;2023-01-28T00:59:45;97403.72;;;-1.37;88.11
55263;BME280;41125;48.752;9.168;2023-01-28T01:00:19;97396.75;;;-1.38;87.98
55263;BME280;41125;48.752;9.168;2023-01-28T01:01:08;97401.06;;;-1.37;88.18
55263;BME280;41125;48.752;9.168;2023-01-28T01:01:40;97399.03;;;-1.35;87.95
55263;BME280;41125;48.752;9.168;2023-01-28T01:02:11;97403.31;;;-1.33;88.19
55263;BME280;41125;48.752;9.168;2023-01-28T01:02:42;97398.00;;;-1.33;87.85
55263;BME280;41125;48.752;9.168;2023-01-28T01:03:14;97398.62;;;-1.31;87.86
55263;BME280;41125;48.752;9.168;2023-01-28T01:03:46;97399.63;;;-1.32;87.81
55263;BME280;41125;48.752;9.168;2023-01-28T01:04:18;97407.81;;;-1.34;87.73
55263;BME280;41125;48.752;9.168;2023-01-28T01:04:56;97403.31;;;-1.33;87.47
55263;BME280;41125;48.752;9.168;2023-01-28T01:05:34;97402.28;;;-1.32;87.56
55263;BME280;41125;48.752;9.168;2023-01-28T01:06:06;97401.28;;;-1.31;87.49
55263;BME280;41125;48.752;9.168;2023-01-28T01:06:39;97401.06;;;-1.30;87.72
55263;BME280;41125;48.752;9.168;2023-01-28T01:07:12;97400.25;;;-1.30;87.36
55263;BME280;41125;48.752;9.168;2023-01-28T01:07:43;97404.56;;;-1.29;87.49
55263;BME280;41125;48.752;9.168;2023-01-28T01:08:15;97407.81;;;-1.27;87.42
55263;BME280;41125;48.752;9.168;2023-01-28T01:08:48;97407.63;;;-1.26;87.21
55263;BME280;41125;48.752;9.168;2023-01-28T01:09:20;97398.22;;;-1.28;87.14
55263;BME280;41125;48.752;9.168;2023-01-28T01:09:52;97402.50;;;-1.27;87.16
55263;BME280;41125;48.752;9.168;2023-01-28T01:10:23;97402.09;;;-1.24;86.80
55263;BME280;41125;48.752;9.168;2023-01-28T01:10:58;97396.38;;;-1.21;86.97
55263;BME280;41125;48.752;9.168;2023-01-28T01:11:29;97399.63;;;-1.19;86.47
55263;BME280;41125;48.752;9.168;2023-01-28T01:12:00;97399.63;;;-1.19;86.45
55263;BME280;41125;48.752;9.168;2023-01-28T01:12:32;97395.53;;;-1.22;86.26
55263;BME280;41125;48.752;9.168;2023-01-28T01:13:07;97398.62;;;-1.25;85.91
55263;BME280;41125;48.752;9.168;2023-01-28T01:13:40;97397.19;;;-1.27;86.15
55263;BME280;41125;48.752;9.168;2023-01-28T01:14:11;97398.22;;;-1.28;86.38
55263;BME280;41125;48.752;9.168;2023-01-28T01:14:42;97390.22;;;-1.28;86.26
55263;BME280;41125;48.752;9.168;2023-01-28T01:15:15;97393.69;;;-1.28;86.50
55263;BME280;41125;48.752;9.168;2023-01-28T01:15:47;97396.38;;;-1.28;86.20
55263;BME280;41125;48.752;9.168;2023-01-28T01:16:18;97400.47;;;-1.25;86.56
55263;BME280;41125;48.752;9.168;2023-01-28T01:16:49;97402.09;;;-1.24;86.23
55263;BME280;41125;48.752;9.168;2023-01-28T01:17:20;97400.25;;;-1.24;86.28
55263;BME280;41125;48.752;9.168;2023-01-28T01:17:52;97398.62;;;-1.25;86.06
55263;BME280;41125;48.752;9.168;2023-01-28T01:18:23;97394.72;;;-1.22;86.05
55263;BME280;41125;48.752;9.168;2023-01-28T01:18:55;97397.19;;;-1.14;85.26
55263;BME280;41125;48.752;9.168;2023-01-28T01:19:26;97406.19;;;-1.15;85.43
55263;BME280;41125;48.752;9.168;2023-01-28T01:20:00;97401.28;;;-1.18;85.02
55263;BME280;41125;48.752;9.168;2023-01-28T01:20:31;97407.00;;;-1.21;86.09
55263;BME280;41125;48.752;9.168;2023-01-28T01:21:08;97404.97;;;-1.26;86.01
55263;BME280;41125;48.752;9.168;2023-01-28T01:21:39;97401.87;;;-1.29;86.38
55263;BME280;41125;48.752;9.168;2023-01-28T01:22:10;97402.91;;;-1.30;86.32
55263;BME280;41125;48.752;9.168;2023-01-28T01:22:42;97403.72;;;-1.30;86.59
55263;BME280;41125;48.752;9.168;2023-01-28T01:23:13;97409.87;;;-1.29;86.28
55263;BME280;41125;48.752;9.168;2023-01-28T01:23:44;97407.41;;;-1.31;86.22
55263;BME280;41125;48.752;9.168;2023-01-28T01:24:16;97405.78;;;-1.32;86.37
55263;BME280;41125;48.752;9.168;2023-01-28T01:24:49;97409.25;;;-1.31;86.50
55263;BME280;41125;48.752;9.168;2023-01-28T01:25:20;97407.00;;;-1.35;nan
55263;BME280;41125;48.752;9.168;2023-01-28T01:25:52;97406.19;;;-1.35;86.00
55263;BME280;41125;48.752;9.168;2023-01-28T01:26:23;97411.91;;;-1.31;86.37
55263;BME280;41125;48.752;9.168;2023-01-28T01:26:59;97409.06;;;-1.30;85.98
55263;BME280;41125;48.752;9.168;2023-01-28T01:27:31;97411.91;;;-1.31;85.95
55263;BME280;41125;48.752;9.168;2023-01-28T01:28:02;97413.16;;;-1.34;85.92
55263;BME280;41125;48.752;9.168;2023-01-28T01:28:35;97413.34;;;-1.36;86.21
55263;BME280;41125;48.752;9.168;2023-01-28T01:29:06;97408.84;;;-1.35;86.32
55263;BME280;41125;48.752;9.168;2023-01-28T01:29:39;97402.50;;;-1.34;86.53
55263;BME280;41125;48.752;9.168;2023-01-28T01:30:13;97411.50;;;-1.35;86.67
55263;BME280;41125;48.752;9.168;2023-01-28T01:30:44;97413.97;;;-1.33;86.74
55263;BME280;41125;48.752;9.168;2023-01-28T01:31:18;97408.66;;;-1.33;86.73
55263;BME280;41125;48.752;9.168;2023-01-28T01:31:50;97412.94;;;-1.32;87.16
55263;BME280;41125;48.752;9.168;2023-01-28T01:32:21;97413.16;;;-1.34;87.17
55263;BME280;41125;48.752;9.168;2023-01-28T01:32:53;97411.31;;;-1.33;87.18
55263;BME280;41125;48.752;9.168;2023-01-28T01:33:25;97405.97;;;-1.33;87.15
55263;BME280;41125;48.752;9.168;2023-01-28T01:33:59;97408.66;;;-1.33;87.40
55263;BME280;41125;48.752;9.168;2023-01-28T01:34:30;97411.91;;;-1.31;87.06
55263;BME280;41125;48.752;9.168;2023-01-28T01:35:03;97411.91;;;-1.31;87.08
55263;BME280;41125;48.752;9.168;2023-01-28T01:35:38;97412.75;;;-1.31;87.40
55263;BME280;41125;48.752;9.168;2023-01-28T01:36:11;97421.56;;;-1.30;87.62
55263;BME280;41125;48.752;9.168;2023-01-28T01:36:43;97411.91;;;-1.31;87.50
55263;BME280;41125;48.752;9.168;2023-01-28T01:37:14;97410.91;;;-1.30;87.71
55263;BME280;41125;48.752;9.168;2023-01-28T01:37:46;97417.03;;;-1.30;87.55
55263;BME280;41125;48.752;9.168;2023-01-28T01:38:17;97413.56;;;-1.30;87.70
55263;BME280;41125;48.752;9.168;2023-01-28T01:38:52;97410.06;;;-1.31;87.52
55263;BME280;41125;48.752;9.168;2023-01-28T01:39:25;97410.28;;;-1.32;87.53
55263;BME280;41125;48.752;9.168;2023-01-28T01:39:56;97413.56;;;-1.30;87.60
55263;BME280;41125;48.752;9.168;2023-01-28T01:40:28;97409.87;;;-1.29;87.49
55263;BME280;41125;48.752;9.168;2023-01-28T01:41:00;97411.50;;;-1.28;87.10
55263;BME280;41125;48.752;9.168;2023-01-28T01:41:32;97414.38;;;-1.30;87.07
55263;BME280;41125;48.752;9.168;2023-01-28T01:42:03;97411.72;;;-1.30;87.04
55263;BME280;41125;48.752;9.168;2023-01-28T01:42:34;97414.38;;;-1.30;87.33
55263;BME280;41125;48.752;9.168;2023-01-28T01:43:17;97412.75;;;-1.31;87.25
55263;BME280;41125;48.752;9.168;2023-01-28T01:43:52;97409.87;;;-1.29;87.37
55263;BME280;41125;48.752;9.168;2023-01-28T01:45:33;97411.50;;;-1.28;87.31
55263;BME280;41125;48.752;9.168;2023-01-28T01:46:04;97413.16;;;-1.27;86.89
55263;BME280;41125;48.752;9.168;2023-01-28T01:46:50;97412.34;;;-1.21;86.54
55263;BME280;41125;48.752;9.168;2023-01-28T01:47:26;97407.00;;;-1.21;86.50
55263;BME280;41125;48.752;9.168;2023-01-28T01:48:08;97414.38;;;-1.23;86.45
55263;BME280;41125;48.752;9.168;2023-01-28T01:48:44;97410.28;;;-1.26;86.24
55263;BME280;41125;48.752;9.168;2023-01-28T01:49:21;97412.53;;;-1.29;86.24
55263;BME280;41125;48.752;9.168;2023-01-28T01:49:53;97409.06;;;-1.30;86.05
55263;BME280;41125;48.752;9.168;2023-01-28T01:50:37;97409.47;;;-1.33;86.31
55263;BME280;41125;48.752;9.168;2023-01-28T01:51:13;97415.59;;;-1.32;86.44
55263;BME280;41125;48.752;9.168;2023-01-28T01:51:50;97418.47;;;-1.34;86.70
55263;BME280;41125;48.752;9.168;2023-01-28T01:52:27;97420.13;;;-1.33;86.72
55263;BME280;41125;48.752;9.168;2023-01-28T01:53:13;97418.28;;;-1.32;86.80
55263;BME280;41125;48.752;9.168;2023-01-28T01:53:49;97418.47;;;-1.34;86.38
55263;BME280;41125;48.752;9.168;2023-01-28T01:54:23;97417.66;;;-1.35;86.51
55263;BME280;41125;48.752;9.168;2023-01-28T01:54:58;97413.97;;;-1.33;86.45
55263;BME280;41125;48.752;9.168;2023-01-28T01:55:33;97421.97;;;-1.33;86.89
55263;BME280;41125;48.752;9.168;2023-01-28T01:56:07;97419.28;;;-1.33;86.87
55263;BME280;41125;48.752;9.168;2023-01-28T01:56:43;97416.63;;;-1.33;86.76
55263;BME280;41125;48.752;9.168;2023-01-28T01:57:20;97418.28;;;-1.32;86.81
55263;BME280;41125;48.752;9.168;2023-01-28T01:57:55;97417.25;;;-1.31;87.03
55263;BME280;41125;48.752;9.168;2023-01-28T01:58:34;97426.88;;;-1.30;86.74
55263;BME280;41125;48.752;9.168;2023-01-28T01:59:11;97418.06;;;-1.31;87.05
55263;BME280;41125;48.752;9.168;2023-01-28T01:59:44;97413.56;;;-1.30;86.78
55263;BME280;41125;48.752;9.168;2023-01-28T02:00:16;97418.06;;;-1.31;87.00
55263;BME280;41125;48.752;9.168;2023-01-28T02:00:48;97429.53;;;-1.30;87.04
55263;BME280;41125;48.752;9.168;2023-01-28T02:01:22;97422.38;;;-1.30;87.20
55263;BME280;41125;48.752;9.168;2023-01-28T02:01:55;97419.91;;;-1.31;87.05
55263;BME280;41125;48.752;9.168;2023-01-28T02:02:28;97415.59;;;-1.32;87.19
55263;BME280;41125;48.752;9.168;2023-01-28T02:03:00;97423.41;;;-1.24;86.95
55263;BME280;41125;48.752;9.168;2023-01-28T02:03:54;97423.81;;;-1.08;85.86
55263;BME280;41125;48.752;9.168;2023-01-28T02:04:32;97425.44;;;-1.07;85.60
55263;BME280;41125;48.752;9.168;2023-01-28T02:05:07;97424.84;;;-1.09;85.38
55263;BME280;41125;48.752;9.168;2023-01-28T02:05:39;97419.72;;;-1.10;85.66
55263;BME280;41125;48.752;9.168;2023-01-28T02:06:11;97422.78;;;-1.13;85.47
55263;BME280;41125;48.752;9.168;2023-01-28T02:06:44;97420.53;;;-1.16;85.53
55263;BME280;41125;48.752;9.168;2023-01-28T02:07:17;97413.97;;;-1.20;85.77
55263;BME280;41125;48.752;9.168;2023-01-28T02:07:53;97420.13;;;-1.20;86.00
55263;BME280;41125;48.752;9.168;2023-01-28T02:08:53;97417.66;;;-1.21;86.28
55263;BME280;41125;48.752;9.168;2023-01-28T02:09:28;97413.38;;;-1.22;86.49
55263;BME280;41125;48.752;9.168;2023-01-28T02:10:00;97419.72;;;-1.23;86.75
55263;BME280;41125;48.752;9.168;2023-01-28T02:10:31;97423.41;;;-1.24;86.74
55263;BME280;41125;48.752;9.168;2023-01-28T02:11:05;97422.56;;;-1.25;87.07
55263;BME280;41125;48.752;9.168;2023-01-28T02:11:38;97416.44;;;-1.25;86.84
55263;BME280;41125;48.752;9.168;2023-01-28T02:12:14;97413.16;;;-1.27;87.55
55263;BME280;41125;48.752;9.168;2023-01-28T02:12:52;97416.84;;;-1.28;87.33
55263;BME280;41125;48.752;9.168;2023-01-28T02:13:31;97413.56;;;-1.30;87.48
55263;BME280;41125;48.752;9.168;2023-01-28T02:14:06;97415.19;;;-1.29;87.40
55263;BME280;41125;48.752;9.168;2023-01-28T02:14:43;97416.03;;;-1.29;87.59
55263;BME280;41125;48.752;9.168;2023-01-28T02:15:21;97419.50;;;-1.28;88.06
55263;BME280;41125;48.752;9.168;2023-01-28T02:15:55;97420.53;;;-1.29;88.40
55263;BME280;41125;48.752;9.168;2023-01-28T02:16:30;97418.88;;;-1.30;88.16
55263;BME280;41125;48.752;9.168;2023-01-28T02:17:02;97416.22;;;-1.30;88.40
55263;BME280;41125;48.752;9.168;2023-01-28T02:17:35;97420.53;;;-1.29;88.07
55263;BME280;41125;48.752;9.168;2023-01-28T02:18:08;97417.66;;;-1.28;88.48
55263;BME280;41125;48.752;9.168;2023-01-28T02:18:39;97418.47;;;-1.27;88.08
55263;BME280;41125;48.752;9.168;2023-01-28T02:19:12;97418.28;;;-1.26;88.05
55263;BME280;41125;48.752;9.168;2023-01-28T02:20:00;97418.69;;;-1.22;88.14
55263;BME280;41125;48.752;9.168;2023-01-28T02:25:03;97425.44;;;-1.26;87.53
55263;BME280;41125;48.752;9.168;2023-01-28T02:27:19;97428.50;;;-1.29;87.57
55263;BME280;41125;48.752;9.168;2023-01-28T02:30:23;97430.34;;;-1.30;87.69
55263;BME280;41125;48.752;9.168;2023-01-28T02:32:28;97426.66;;;-1.29;87.61
55263;BME280;41125;48.752;9.168;2023-01-28T02:33:09;97423.19;;;-1.29;87.60
55263;BME280;41125;48.752;9.168;2023-01-28T02:34:13;97425.03;;;-1.30;87.93
55263;BME280;41125;48.752;9.168;2023-01-28T02:34:55;97424.00;;;-1.29;88.01
55263;BME280;41125;48.752;9.168;2023-01-28T02:36:02;97422.16;;;-1.28;87.91
55263;BME280;41125;48.752;9.168;2023-01-28T02:36:49;97425.44;;;-1.26;88.12
55263;BME280;41125;48.752;9.168;2023-01-28T02:37:33;97425.44;;;-1.26;88.06
55263;BME280;41125;48.752;9.168;2023-01-28T02:38:11;97423.81;;;-1.27;88.02
55263;BME280;41125;48.752;9.168;2023-01-28T02:38:48;97420.13;;;-1.26;88.13
55263;BME280;41125;48.752;9.168;2023-01-28T02:39:29;97427.28;;;-1.27;87.80
55263;BME280;41125;48.752;9.168;2023-01-28T02:40:13;97424.41;;;-1.25;88.04
55263;BME280;41125;48.752;9.168;2023-01-28T02:40:50;97421.75;;;-1.25;87.75
55263;BME280;41125;48.752;9.168;2023-01-28T02:42:34;97426.28;;;-1.19;87.51
55263;BME280;41125;48.752;9.168;2023-01-28T02:43:07;97420.13;;;-1.20;87.34
55263;BME280;41125;48.752;9.168;2023-01-28T02:43:43;97419.72;;;-1.23;86.94
55263;BME280;41125;48.752;9.168;2023-01-28T02:44:16;97426.06;;;-1.24;87.00
55263;BME280;41125;48.752;9.168;2023-01-28T02:44:47;97421.75;;;-1.25;87.08
55263;BME280;41125;48.752;9.168;2023-01-28T02:45:30;97422.97;;;-1.28;87.39
55263;BME280;41125;48.752;9.168;2023-01-28T02:46:40;97434.44;;;-1.27;87.48
55263;BME280;41125;48.752;9.168;2023-01-28T02:47:29;97420.53;;;-1.29;87.66
55263;BME280;41125;48.752;9.168;2023-01-28T02:48:21;97424.22;;;-1.30;87.74
55263;BME280;41125;48.752;9.168;2023-01-28T02:48:53;97425.84;;;-1.29;87.50
55263;BME280;41125;48.752;9.168;2023-01-28T02:49:34;97430.34;;;-1.30;87.77
55263;BME280;41125;48.752;9.168;2023-01-28T02:50:17;97424.22;;;-1.30;87.79
55263;BME280;41125;48.752;9.168;2023-01-28T02:51:10;97429.94;;;-1.33;87.80
55263;BME280;41125;48.752;9.168;2023-01-28T02:52:31;97432.00;;;-1.36;88.18
55263;BME280;41125;48.752;9.168;2023-01-28T02:53:40;97429.94;;;-1.33;88.17
55263;BME280;41125;48.752;9.168;2023-01-28T02:56:31;97435.47;;;-1.35;89.21
55263;BME280;41125;48.752;9.168;2023-01-28T02:57:29;97432.00;;;-1.36;88.76
55263;BME280;41125;48.752;9.168;2023-01-28T02:58:26;97437.31;;;-1.36;88.59
55263;BME280;41125;48.752;9.168;2023-01-28T02:59:11;97437.09;;;-1.34;88.60
55263;BME280;41125;48.752;9.168;2023-01-28T03:00:22;97440.59;;;-1.33;88.78
55263;BME280;41125;48.752;9.168;2023-01-28T03:01:55;97434.44;;;-1.27;88.27
55263;BME280;41125;48.752;9.168;2023-01-28T03:03:14;97433.63;;;-1.28;88.09
55263;BME280;41125;48.752;9.168;2023-01-28T03:05:38;97433.44;;;-1.26;88.02
55263;BME280;41125;48.752;9.168;2023-01-28T03:06:16;97440.81;;;-1.28;87.81
55263;BME280;41125;48.752;9.168;2023-01-28T03:06:53;97437.31;;;-1.29;87.85
55263;BME280;41125;48.752;9.168;2023-01-28T03:07:30;97439.16;;;-1.29;88.09
55263;BME280;41125;48.752;9.168;2023-01-28T03:08:05;97432.81;;;-1.28;87.79
55263;BME280;41125;48.752;9.168;2023-01-28T03:09:03;97438.75;;;-1.26;88.16
55263;BME280;41125;48.752;9.168;2023-01-28T03:09:57;97429.53;;;-1.24;88.16
55263;BME280;41125;48.752;9.168;2023-01-28T03:10:36;97434.88;;;-1.24;88.07
55263;BME280;41125;48.752;9.168;2023-01-28T03:11:07;97438.34;;;-1.23;87.81
55263;BME280;41125;48.752;9.168;2023-01-28T03:12:02;97441.00;;;-1.23;88.24
55263;BME280;41125;48.752;9.168;2023-01-28T03:12:55;97435.69;;;-1.23;88.01
55263;BME280;41125;48.752;9.168;2023-01-28T03:13:46;97437.72;;;-1.25;88.30
55263;BME280;41125;48.752;9.168;2023-01-28T03:14:37;97434.88;;;-1.24;88.29
55263;BME280;41125;48.752;9.168;2023-01-28T03:15:33;97437.72;;;-1.25;88.31
55263;BME280;41125;48.752;9.168;2023-01-28T03:16:26;97441.41;;;-1.26;88.05
55263;BME280;41125;48.752;9.168;2023-01-28T03:17:22;97439.37;;;-1.24;88.05
55263;BME280;41125;48.752;9.168;2023-01-28T03:18:19;97438.75;;;-1.26;87.85
55263;BME280;41125;48.752;9.168;2023-01-28T03:19:12;97444.28;;;-1.28;88.27
55263;BME280;41125;48.752;9.168;2023-01-28T03:20:02;97440.19;;;-1.30;88.44
55263;BME280;41125;48.752;9.168;2023-01-28T03:21:18;97440.19;;;-1.30;88.50
55263;BME280;41125;48.752;9.168;2023-01-28T03:22:09;97440.19;;;-1.30;88.94
55263;BME280;41125;48.752;9.168;2023-01-28T03:23:02;97436.69;;;-1.31;89.36
55263;BME280;41125;48.752;9.168;2023-01-28T03:24:02;97438.53;;;-1.31;89.77
55263;BME280;41125;48.752;9.168;2023-01-28T03:24:53;97435.88;;;-1.31;89.69
55263;BME280;41125;48.752;9.168;2023-01-28T03:25:44;97436.91;;;-1.26;89.57
55263;BME280;41125;48.752;9.168;2023-01-28T03:26:41;97430.78;;;-1.26;89.51
55263;BME280;41125;48.752;9.168;2023-01-28T03:27:56;97439.78;;;-1.27;89.10
55263;BME280;41125;48.752;9.168;2023-01-28T03:28:49;97432.81;;;-1.28;89.16
55263;BME280;41125;48.752;9.168;2023-01-28T03:29:40;97438.13;;;-1.28;89.29
55263;BME280;41125;48.752;9.168;2023-01-28T03:31:50;97433.22;;;-1.31;90.57
55263;BME280;41125;48.752;9.168;2023-01-28T03:32:41;97435.25;;;-1.33;90.83